Enter the Airport ICAO Code

Search by Airport or City

Current Weather

MMMD | Manuel Crescencio Rejón International Airport

Mérida, Yucatán, Mexico

Last Update 20 Minutes Ago

Clear Sky

Temperature of 21 ºC

Moderate Winds from East

Temperature

21 ºC

Dew Point Temperature

19 ºC

Relative Humidity

88.42 %

Wind Direction

East (110º, Without Significant Variations)

Wind Velocity

19 km/h (10 kt)

Gusts

None

Visibility

Reduced to 7 Miles

Sea Level Pressure

29.97 inHg (Inches of Mercury)

Layers of Clouds

None

METAR MMMD 160745Z 11010KT 7SM SKC 21/19 A2997

Weather Forecast

MMMD | Manuel Crescencio Rejón International Airport

Mérida, Yucatán, Mexico

Forecast valid for the next 28 Hours

From now on it is expected:

Clear Sky

Moderate Winds from East

In 10 hours it is expected the begining of:

Partly Cloudy Sky

Moderate Winds from SouthEast

In 21 to 23 hours it is expected the begining of:

Light to Moderate Winds from SouthEast

Maximum Temperature

29 ºC in 12 Hours

Minimum Temperature

19 ºC in 4 Hours

TAF MMMD 160500Z 1606/1712 10010KT P6SM SKC TX29/1620Z TN19/1612Z FM161800 13012KT P6SM SCT25 BECMG 1705/1707 12005KT